Atlanta, Georgia
Traffic Map
Current Weather Conditions
Atlanta, Georgia
Scattered Clouds
Scattered Clouds
85°
Feels Like: 85°
Wind Chill: 85° Ceiling: Unl
Heat Index: 85° Visibility: 10mi
Dew Point: 57° Wind: 7mph
Humidity: 38% Direction: 110° (ESE)
Pressure: 29.98in Gusts: 0mph
Raw Report DataKATL 011952Z 11006KT 10SM SCT065 SCT250 29/14 A2998 RMK AO2 SLP142 T02940139
Traffic Incident Summary
Active as of:
Severity:
Category:
InformationThere was an issue retrieving the traffic information for this location. Please try a different location or try again shortly.
Advertisements
Track Severe Weather on mobile